sensor_id;sensor_type;location;lat;lon;timestamp;P1;durP1;ratioP1;P2;durP2;ratioP2
64351;SDS011;50680;52.626;-8.668;2023-09-08T00:02:25;27.27;;;11.98;;
64351;SDS011;50680;52.626;-8.668;2023-09-08T00:04:53;36.35;;;11.55;;
64351;SDS011;50680;52.626;-8.668;2023-09-08T00:07:20;29.17;;;10.95;;
64351;SDS011;50680;52.626;-8.668;2023-09-08T00:09:47;29.95;;;10.70;;
64351;SDS011;50680;52.626;-8.668;2023-09-08T00:12:14;38.53;;;12.07;;
64351;SDS011;50680;52.626;-8.668;2023-09-08T00:14:41;33.83;;;12.63;;
64351;SDS011;50680;52.626;-8.668;2023-09-08T00:17:08;32.50;;;12.95;;
64351;SDS011;50680;52.626;-8.668;2023-09-08T00:19:35;31.05;;;10.77;;
64351;SDS011;50680;52.626;-8.668;2023-09-08T00:22:03;35.22;;;11.95;;
64351;SDS011;50680;52.626;-8.668;2023-09-08T00:24:32;28.52;;;11.05;;
64351;SDS011;50680;52.626;-8.668;2023-09-08T00:27:00;25.40;;;10.68;;
64351;SDS011;50680;52.626;-8.668;2023-09-08T00:29:27;25.95;;;10.10;;
64351;SDS011;50680;52.626;-8.668;2023-09-08T00:31:54;22.75;;;9.88;;
64351;SDS011;50680;52.626;-8.668;2023-09-08T00:34:21;25.30;;;9.73;;
64351;SDS011;50680;52.626;-8.668;2023-09-08T00:36:47;20.15;;;8.93;;
64351;SDS011;50680;52.626;-8.668;2023-09-08T00:39:14;23.70;;;10.15;;
64351;SDS011;50680;52.626;-8.668;2023-09-08T00:41:41;23.27;;;8.93;;
64351;SDS011;50680;52.626;-8.668;2023-09-08T00:44:08;23.02;;;9.55;;
64351;SDS011;50680;52.626;-8.668;2023-09-08T00:46:35;31.63;;;10.48;;
64351;SDS011;50680;52.626;-8.668;2023-09-08T00:49:02;22.40;;;10.10;;
64351;SDS011;50680;52.626;-8.668;2023-09-08T00:51:30;30.73;;;11.50;;
64351;SDS011;50680;52.626;-8.668;2023-09-08T00:53:57;25.02;;;11.05;;
64351;SDS011;50680;52.626;-8.668;2023-09-08T00:56:24;25.75;;;8.95;;
64351;SDS011;50680;52.626;-8.668;2023-09-08T00:58:51;27.63;;;9.60;;
64351;SDS011;50680;52.626;-8.668;2023-09-08T01:01:18;25.25;;;9.23;;
64351;SDS011;50680;52.626;-8.668;2023-09-08T01:03:46;30.58;;;9.57;;
64351;SDS011;50680;52.626;-8.668;2023-09-08T01:06:13;19.05;;;8.82;;
64351;SDS011;50680;52.626;-8.668;2023-09-08T01:08:40;22.02;;;9.13;;
64351;SDS011;50680;52.626;-8.668;2023-09-08T01:11:08;29.27;;;10.32;;
64351;SDS011;50680;52.626;-8.668;2023-09-08T01:13:34;43.00;;;12.85;;
64351;SDS011;50680;52.626;-8.668;2023-09-08T01:16:01;30.90;;;15.68;;
64351;SDS011;50680;52.626;-8.668;2023-09-08T01:18:28;40.00;;;16.90;;
64351;SDS011;50680;52.626;-8.668;2023-09-08T01:21:03;41.35;;;19.95;;
64351;SDS011;50680;52.626;-8.668;2023-09-08T01:26:30;37.45;;;16.42;;
64351;SDS011;50680;52.626;-8.668;2023-09-08T01:29:02;34.28;;;12.98;;
64351;SDS011;50680;52.626;-8.668;2023-09-08T01:31:31;29.80;;;14.98;;
64351;SDS011;50680;52.626;-8.668;2023-09-08T01:34:00;27.90;;;14.85;;
64351;SDS011;50680;52.626;-8.668;2023-09-08T01:36:36;29.90;;;13.35;;
64351;SDS011;50680;52.626;-8.668;2023-09-08T01:39:03;40.72;;;14.75;;
64351;SDS011;50680;52.626;-8.668;2023-09-08T01:41:30;36.10;;;15.48;;
64351;SDS011;50680;52.626;-8.668;2023-09-08T01:44:00;30.38;;;12.88;;
64351;SDS011;50680;52.626;-8.668;2023-09-08T01:46:31;22.65;;;10.57;;
64351;SDS011;50680;52.626;-8.668;2023-09-08T01:48:58;23.42;;;11.32;;
64351;SDS011;50680;52.626;-8.668;2023-09-08T01:51:25;30.73;;;12.30;;
64351;SDS011;50680;52.626;-8.668;2023-09-08T01:53:52;30.15;;;13.57;;
64351;SDS011;50680;52.626;-8.668;2023-09-08T01:56:19;29.75;;;13.27;;
64351;SDS011;50680;52.626;-8.668;2023-09-08T01:58:45;36.30;;;15.98;;
64351;SDS011;50680;52.626;-8.668;2023-09-08T02:01:12;26.75;;;12.80;;
64351;SDS011;50680;52.626;-8.668;2023-09-08T02:03:39;31.05;;;12.45;;
64351;SDS011;50680;52.626;-8.668;2023-09-08T02:06:06;22.00;;;12.05;;
64351;SDS011;50680;52.626;-8.668;2023-09-08T02:08:33;24.65;;;12.27;;
64351;SDS011;50680;52.626;-8.668;2023-09-08T02:11:00;22.75;;;12.05;;
64351;SDS011;50680;52.626;-8.668;2023-09-08T02:13:26;23.48;;;10.88;;
64351;SDS011;50680;52.626;-8.668;2023-09-08T02:15:53;25.85;;;12.68;;
64351;SDS011;50680;52.626;-8.668;2023-09-08T02:18:20;35.30;;;13.40;;
64351;SDS011;50680;52.626;-8.668;2023-09-08T02:20:47;32.17;;;13.50;;
64351;SDS011;50680;52.626;-8.668;2023-09-08T02:23:14;34.38;;;14.73;;
64351;SDS011;50680;52.626;-8.668;2023-09-08T02:25:41;27.40;;;13.18;;
64351;SDS011;50680;52.626;-8.668;2023-09-08T02:28:08;24.80;;;12.77;;
64351;SDS011;50680;52.626;-8.668;2023-09-08T02:30:34;28.00;;;17.95;;
64351;SDS011;50680;52.626;-8.668;2023-09-08T02:33:02;37.17;;;22.98;;
64351;SDS011;50680;52.626;-8.668;2023-09-08T02:35:29;52.70;;;22.20;;
64351;SDS011;50680;52.626;-8.668;2023-09-08T02:37:56;32.78;;;18.02;;
64351;SDS011;50680;52.626;-8.668;2023-09-08T02:40:24;30.30;;;17.17;;
64351;SDS011;50680;52.626;-8.668;2023-09-08T02:42:51;31.95;;;15.90;;
64351;SDS011;50680;52.626;-8.668;2023-09-08T02:45:18;30.38;;;16.65;;
64351;SDS011;50680;52.626;-8.668;2023-09-08T02:47:45;21.00;;;14.02;;
64351;SDS011;50680;52.626;-8.668;2023-09-08T02:50:12;29.23;;;14.57;;
64351;SDS011;50680;52.626;-8.668;2023-09-08T02:52:38;30.67;;;15.35;;
64351;SDS011;50680;52.626;-8.668;2023-09-08T02:55:05;25.63;;;15.07;;
64351;SDS011;50680;52.626;-8.668;2023-09-08T02:57:33;35.38;;;16.90;;
64351;SDS011;50680;52.626;-8.668;2023-09-08T03:00:00;28.52;;;15.57;;
64351;SDS011;50680;52.626;-8.668;2023-09-08T03:02:28;38.67;;;18.80;;
64351;SDS011;50680;52.626;-8.668;2023-09-08T03:04:55;26.92;;;16.00;;
64351;SDS011;50680;52.626;-8.668;2023-09-08T03:07:22;29.60;;;15.32;;
64351;SDS011;50680;52.626;-8.668;2023-09-08T03:09:48;34.20;;;18.80;;
64351;SDS011;50680;52.626;-8.668;2023-09-08T03:12:15;34.75;;;19.50;;
64351;SDS011;50680;52.626;-8.668;2023-09-08T03:14:42;27.02;;;17.45;;
64351;SDS011;50680;52.626;-8.668;2023-09-08T03:17:09;30.35;;;14.27;;
64351;SDS011;50680;52.626;-8.668;2023-09-08T03:19:37;29.40;;;15.30;;
64351;SDS011;50680;52.626;-8.668;2023-09-08T03:22:03;25.48;;;15.23;;
64351;SDS011;50680;52.626;-8.668;2023-09-08T03:24:30;27.08;;;15.07;;
64351;SDS011;50680;52.626;-8.668;2023-09-08T03:26:57;28.80;;;16.60;;
64351;SDS011;50680;52.626;-8.668;2023-09-08T03:29:24;29.77;;;17.67;;
64351;SDS011;50680;52.626;-8.668;2023-09-08T03:31:51;36.05;;;18.63;;
64351;SDS011;50680;52.626;-8.668;2023-09-08T03:34:18;30.17;;;17.52;;
64351;SDS011;50680;52.626;-8.668;2023-09-08T03:36:48;34.22;;;18.77;;
64351;SDS011;50680;52.626;-8.668;2023-09-08T03:39:15;31.92;;;17.70;;
64351;SDS011;50680;52.626;-8.668;2023-09-08T03:41:42;36.45;;;19.00;;
64351;SDS011;50680;52.626;-8.668;2023-09-08T03:44:09;32.67;;;18.67;;
64351;SDS011;50680;52.626;-8.668;2023-09-08T03:46:36;42.03;;;20.08;;
64351;SDS011;50680;52.626;-8.668;2023-09-08T03:49:03;39.95;;;20.05;;
64351;SDS011;50680;52.626;-8.668;2023-09-08T03:51:30;33.88;;;17.77;;
64351;SDS011;50680;52.626;-8.668;2023-09-08T03:53:57;24.65;;;16.95;;
64351;SDS011;50680;52.626;-8.668;2023-09-08T03:56:24;29.77;;;17.38;;
64351;SDS011;50680;52.626;-8.668;2023-09-08T03:58:51;33.97;;;18.25;;
64351;SDS011;50680;52.626;-8.668;2023-09-08T04:01:18;39.35;;;18.88;;
64351;SDS011;50680;52.626;-8.668;2023-09-08T04:03:45;39.90;;;17.50;;
64351;SDS011;50680;52.626;-8.668;2023-09-08T04:06:11;30.30;;;18.05;;
64351;SDS011;50680;52.626;-8.668;2023-09-08T04:08:38;35.67;;;18.10;;
64351;SDS011;50680;52.626;-8.668;2023-09-08T04:11:05;38.45;;;16.75;;
64351;SDS011;50680;52.626;-8.668;2023-09-08T04:13:32;31.45;;;16.38;;
64351;SDS011;50680;52.626;-8.668;2023-09-08T04:15:59;28.88;;;15.73;;
64351;SDS011;50680;52.626;-8.668;2023-09-08T04:18:26;34.75;;;17.92;;
64351;SDS011;50680;52.626;-8.668;2023-09-08T04:20:53;45.67;;;18.67;;
64351;SDS011;50680;52.626;-8.668;2023-09-08T04:23:20;37.05;;;19.90;;
64351;SDS011;50680;52.626;-8.668;2023-09-08T04:25:47;36.05;;;20.52;;
64351;SDS011;50680;52.626;-8.668;2023-09-08T04:28:14;33.40;;;17.60;;
64351;SDS011;50680;52.626;-8.668;2023-09-08T04:30:40;25.08;;;16.63;;
64351;SDS011;50680;52.626;-8.668;2023-09-08T04:33:07;23.42;;;14.88;;
64351;SDS011;50680;52.626;-8.668;2023-09-08T04:35:35;25.63;;;15.23;;
64351;SDS011;50680;52.626;-8.668;2023-09-08T04:38:01;32.15;;;17.13;;
64351;SDS011;50680;52.626;-8.668;2023-09-08T04:40:30;31.15;;;15.73;;
64351;SDS011;50680;52.626;-8.668;2023-09-08T04:42:57;25.88;;;14.98;;
64351;SDS011;50680;52.626;-8.668;2023-09-08T04:45:23;31.90;;;16.77;;
64351;SDS011;50680;52.626;-8.668;2023-09-08T04:47:51;37.33;;;16.33;;
64351;SDS011;50680;52.626;-8.668;2023-09-08T04:50:18;36.30;;;21.73;;
64351;SDS011;50680;52.626;-8.668;2023-09-08T04:52:44;49.88;;;31.17;;
64351;SDS011;50680;52.626;-8.668;2023-09-08T04:55:11;50.38;;;33.25;;
64351;SDS011;50680;52.626;-8.668;2023-09-08T04:57:38;69.82;;;40.05;;
64351;SDS011;50680;52.626;-8.668;2023-09-08T05:00:05;62.95;;;40.80;;
64351;SDS011;50680;52.626;-8.668;2023-09-08T05:02:33;59.85;;;34.63;;
64351;SDS011;50680;52.626;-8.668;2023-09-08T05:05:00;61.58;;;35.17;;
64351;SDS011;50680;52.626;-8.668;2023-09-08T05:07:26;46.15;;;29.13;;
64351;SDS011;50680;52.626;-8.668;2023-09-08T05:09:53;68.13;;;36.28;;
64351;SDS011;50680;52.626;-8.668;2023-09-08T05:12:23;70.28;;;38.75;;
64351;SDS011;50680;52.626;-8.668;2023-09-08T05:14:50;56.97;;;33.17;;
64351;SDS011;50680;52.626;-8.668;2023-09-08T05:17:25;67.10;;;37.90;;
64351;SDS011;50680;52.626;-8.668;2023-09-08T05:19:52;49.67;;;27.00;;
64351;SDS011;50680;52.626;-8.668;2023-09-08T05:22:19;58.42;;;34.75;;
64351;SDS011;50680;52.626;-8.668;2023-09-08T05:24:46;60.33;;;36.05;;
64351;SDS011;50680;52.626;-8.668;2023-09-08T05:27:13;62.30;;;38.00;;
64351;SDS011;50680;52.626;-8.668;2023-09-08T05:29:39;65.65;;;39.00;;
64351;SDS011;50680;52.626;-8.668;2023-09-08T05:32:06;66.35;;;39.55;;
64351;SDS011;50680;52.626;-8.668;2023-09-08T05:34:33;62.10;;;37.20;;
64351;SDS011;50680;52.626;-8.668;2023-09-08T05:37:00;60.45;;;35.28;;
64351;SDS011;50680;52.626;-8.668;2023-09-08T05:39:27;54.00;;;34.00;;
64351;SDS011;50680;52.626;-8.668;2023-09-08T05:41:54;62.53;;;36.20;;
64351;SDS011;50680;52.626;-8.668;2023-09-08T05:44:21;62.95;;;37.42;;
64351;SDS011;50680;52.626;-8.668;2023-09-08T05:46:48;41.80;;;24.92;;
64351;SDS011;50680;52.626;-8.668;2023-09-08T05:49:15;31.13;;;19.42;;
64351;SDS011;50680;52.626;-8.668;2023-09-08T05:51:42;33.85;;;17.23;;
64351;SDS011;50680;52.626;-8.668;2023-09-08T05:54:08;28.35;;;17.02;;
64351;SDS011;50680;52.626;-8.668;2023-09-08T05:56:36;26.40;;;18.88;;
64351;SDS011;50680;52.626;-8.668;2023-09-08T05:59:04;37.97;;;20.13;;
64351;SDS011;50680;52.626;-8.668;2023-09-08T06:01:31;37.42;;;20.73;;
64351;SDS011;50680;52.626;-8.668;2023-09-08T06:03:59;33.05;;;19.85;;
64351;SDS011;50680;52.626;-8.668;2023-09-08T06:06:26;30.95;;;17.55;;
64351;SDS011;50680;52.626;-8.668;2023-09-08T06:08:54;31.45;;;18.45;;
64351;SDS011;50680;52.626;-8.668;2023-09-08T06:11:21;33.72;;;21.80;;
64351;SDS011;50680;52.626;-8.668;2023-09-08T06:13:48;35.40;;;19.65;;
64351;SDS011;50680;52.626;-8.668;2023-09-08T06:16:15;30.60;;;19.83;;
64351;SDS011;50680;52.626;-8.668;2023-09-08T06:18:42;31.63;;;18.35;;
64351;SDS011;50680;52.626;-8.668;2023-09-08T06:21:10;40.85;;;19.23;;
64351;SDS011;50680;52.626;-8.668;2023-09-08T06:23:37;29.77;;;18.42;;
64351;SDS011;50680;52.626;-8.668;2023-09-08T06:26:04;31.17;;;18.50;;
64351;SDS011;50680;52.626;-8.668;2023-09-08T06:28:30;33.42;;;18.95;;
64351;SDS011;50680;52.626;-8.668;2023-09-08T06:30:58;33.70;;;18.25;;
64351;SDS011;50680;52.626;-8.668;2023-09-08T06:33:25;29.15;;;17.77;;
64351;SDS011;50680;52.626;-8.668;2023-09-08T06:35:52;38.78;;;19.73;;
64351;SDS011;50680;52.626;-8.668;2023-09-08T06:38:20;35.25;;;19.98;;
64351;SDS011;50680;52.626;-8.668;2023-09-08T06:40:47;35.05;;;19.40;;
64351;SDS011;50680;52.626;-8.668;2023-09-08T06:43:14;28.67;;;18.38;;
64351;SDS011;50680;52.626;-8.668;2023-09-08T06:45:41;33.05;;;19.17;;
64351;SDS011;50680;52.626;-8.668;2023-09-08T06:48:08;31.95;;;18.40;;
64351;SDS011;50680;52.626;-8.668;2023-09-08T06:50:35;36.15;;;17.73;;
64351;SDS011;50680;52.626;-8.668;2023-09-08T06:53:02;29.20;;;17.85;;
64351;SDS011;50680;52.626;-8.668;2023-09-08T06:55:29;34.95;;;19.90;;
64351;SDS011;50680;52.626;-8.668;2023-09-08T06:57:56;33.85;;;20.00;;
64351;SDS011;50680;52.626;-8.668;2023-09-08T07:00:23;32.28;;;21.00;;
64351;SDS011;50680;52.626;-8.668;2023-09-08T07:02:50;38.08;;;21.15;;
64351;SDS011;50680;52.626;-8.668;2023-09-08T07:05:18;48.03;;;21.40;;
64351;SDS011;50680;52.626;-8.668;2023-09-08T07:07:45;40.25;;;18.60;;
64351;SDS011;50680;52.626;-8.668;2023-09-08T07:10:12;42.33;;;18.25;;
64351;SDS011;50680;52.626;-8.668;2023-09-08T07:12:39;30.73;;;16.27;;
64351;SDS011;50680;52.626;-8.668;2023-09-08T07:15:06;35.78;;;16.60;;
64351;SDS011;50680;52.626;-8.668;2023-09-08T07:17:35;30.45;;;17.65;;
64351;SDS011;50680;52.626;-8.668;2023-09-08T07:20:01;32.20;;;16.33;;
64351;SDS011;50680;52.626;-8.668;2023-09-08T07:22:29;25.60;;;15.00;;
64351;SDS011;50680;52.626;-8.668;2023-09-08T07:24:55;33.75;;;15.68;;
64351;SDS011;50680;52.626;-8.668;2023-09-08T07:27:22;26.52;;;15.77;;
64351;SDS011;50680;52.626;-8.668;2023-09-08T07:29:49;25.77;;;16.13;;
64351;SDS011;50680;52.626;-8.668;2023-09-08T07:32:16;32.15;;;17.42;;
64351;SDS011;50680;52.626;-8.668;2023-09-08T07:34:45;30.25;;;16.15;;
64351;SDS011;50680;52.626;-8.668;2023-09-08T07:37:13;25.17;;;15.75;;
64351;SDS011;50680;52.626;-8.668;2023-09-08T07:39:40;28.17;;;15.90;;
64351;SDS011;50680;52.626;-8.668;2023-09-08T07:42:07;29.30;;;16.33;;
64351;SDS011;50680;52.626;-8.668;2023-09-08T07:44:35;30.30;;;15.63;;
64351;SDS011;50680;52.626;-8.668;2023-09-08T07:47:01;28.27;;;15.45;;
64351;SDS011;50680;52.626;-8.668;2023-09-08T07:49:28;29.27;;;14.70;;
64351;SDS011;50680;52.626;-8.668;2023-09-08T07:51:55;32.72;;;15.18;;
64351;SDS011;50680;52.626;-8.668;2023-09-08T07:54:22;29.13;;;13.77;;
64351;SDS011;50680;52.626;-8.668;2023-09-08T07:56:49;31.58;;;14.88;;
64351;SDS011;50680;52.626;-8.668;2023-09-08T07:59:16;24.77;;;14.48;;
64351;SDS011;50680;52.626;-8.668;2023-09-08T08:01:43;22.55;;;13.27;;
64351;SDS011;50680;52.626;-8.668;2023-09-08T08:04:09;24.17;;;13.52;;
64351;SDS011;50680;52.626;-8.668;2023-09-08T08:06:37;25.40;;;13.25;;
64351;SDS011;50680;52.626;-8.668;2023-09-08T08:09:04;38.47;;;13.10;;
64351;SDS011;50680;52.626;-8.668;2023-09-08T08:11:31;24.67;;;13.18;;
64351;SDS011;50680;52.626;-8.668;2023-09-08T08:13:58;30.50;;;13.82;;
64351;SDS011;50680;52.626;-8.668;2023-09-08T08:16:24;28.98;;;13.63;;
64351;SDS011;50680;52.626;-8.668;2023-09-08T08:18:51;25.17;;;13.70;;
64351;SDS011;50680;52.626;-8.668;2023-09-08T08:21:19;23.60;;;11.45;;
64351;SDS011;50680;52.626;-8.668;2023-09-08T08:23:46;26.00;;;11.95;;
64351;SDS011;50680;52.626;-8.668;2023-09-08T08:26:13;22.67;;;12.38;;
64351;SDS011;50680;52.626;-8.668;2023-09-08T08:28:40;22.38;;;12.30;;
64351;SDS011;50680;52.626;-8.668;2023-09-08T08:31:06;27.58;;;12.02;;
64351;SDS011;50680;52.626;-8.668;2023-09-08T08:33:33;26.25;;;11.07;;
64351;SDS011;50680;52.626;-8.668;2023-09-08T08:36:00;21.35;;;11.48;;
64351;SDS011;50680;52.626;-8.668;2023-09-08T08:38:27;19.60;;;11.07;;
64351;SDS011;50680;52.626;-8.668;2023-09-08T08:40:54;25.05;;;11.52;;
64351;SDS011;50680;52.626;-8.668;2023-09-08T08:43:21;16.67;;;11.00;;
64351;SDS011;50680;52.626;-8.668;2023-09-08T08:45:49;33.22;;;11.40;;
64351;SDS011;50680;52.626;-8.668;2023-09-08T08:48:18;26.38;;;10.93;;
64351;SDS011;50680;52.626;-8.668;2023-09-08T08:50:47;26.02;;;10.30;;
64351;SDS011;50680;52.626;-8.668;2023-09-08T08:53:14;20.65;;;10.98;;
64351;SDS011;50680;52.626;-8.668;2023-09-08T08:55:43;20.70;;;10.27;;
64351;SDS011;50680;52.626;-8.668;2023-09-08T08:58:12;22.90;;;10.50;;
64351;SDS011;50680;52.626;-8.668;2023-09-08T09:00:41;21.33;;;10.40;;
64351;SDS011;50680;52.626;-8.668;2023-09-08T09:03:08;20.08;;;10.52;;
64351;SDS011;50680;52.626;-8.668;2023-09-08T09:05:41;20.02;;;10.00;;
64351;SDS011;50680;52.626;-8.668;2023-09-08T09:08:14;19.83;;;10.25;;
64351;SDS011;50680;52.626;-8.668;2023-09-08T09:10:42;23.10;;;9.52;;
64351;SDS011;50680;52.626;-8.668;2023-09-08T09:13:09;20.63;;;9.88;;
64351;SDS011;50680;52.626;-8.668;2023-09-08T09:15:36;25.70;;;10.13;;
64351;SDS011;50680;52.626;-8.668;2023-09-08T09:18:07;21.35;;;9.50;;
64351;SDS011;50680;52.626;-8.668;2023-09-08T09:20:34;19.58;;;8.85;;
64351;SDS011;50680;52.626;-8.668;2023-09-08T09:23:02;24.27;;;7.93;;
64351;SDS011;50680;52.626;-8.668;2023-09-08T09:25:30;20.45;;;8.35;;
64351;SDS011;50680;52.626;-8.668;2023-09-08T09:27:59;22.27;;;8.43;;
64351;SDS011;50680;52.626;-8.668;2023-09-08T09:30:27;26.13;;;8.02;;
64351;SDS011;50680;52.626;-8.668;2023-09-08T09:33:12;24.10;;;8.32;;
64351;SDS011;50680;52.626;-8.668;2023-09-08T09:35:39;28.98;;;8.68;;
64351;SDS011;50680;52.626;-8.668;2023-09-08T09:38:10;13.82;;;7.55;;
64351;SDS011;50680;52.626;-8.668;2023-09-08T09:40:38;20.02;;;7.68;;
64351;SDS011;50680;52.626;-8.668;2023-09-08T09:43:06;20.70;;;8.38;;
64351;SDS011;50680;52.626;-8.668;2023-09-08T09:45:34;18.27;;;7.47;;
64351;SDS011;50680;52.626;-8.668;2023-09-08T09:48:02;21.73;;;7.20;;
64351;SDS011;50680;52.626;-8.668;2023-09-08T09:50:34;19.17;;;7.03;;
64351;SDS011;50680;52.626;-8.668;2023-09-08T09:53:07;21.95;;;6.85;;
64351;SDS011;50680;52.626;-8.668;2023-09-08T09:55:39;13.75;;;7.10;;
64351;SDS011;50680;52.626;-8.668;2023-09-08T09:58:08;19.10;;;7.47;;
64351;SDS011;50680;52.626;-8.668;2023-09-08T10:00:37;16.30;;;7.32;;
64351;SDS011;50680;52.626;-8.668;2023-09-08T10:03:07;22.33;;;7.40;;
64351;SDS011;50680;52.626;-8.668;2023-09-08T10:05:35;17.33;;;7.00;;
64351;SDS011;50680;52.626;-8.668;2023-09-08T10:08:03;19.75;;;6.93;;
64351;SDS011;50680;52.626;-8.668;2023-09-08T10:10:31;13.27;;;6.07;;
64351;SDS011;50680;52.626;-8.668;2023-09-08T10:13:01;17.73;;;6.25;;
64351;SDS011;50680;52.626;-8.668;2023-09-08T10:15:30;14.27;;;6.38;;
64351;SDS011;50680;52.626;-8.668;2023-09-08T10:17:58;20.52;;;6.45;;
64351;SDS011;50680;52.626;-8.668;2023-09-08T10:20:29;18.25;;;6.00;;
64351;SDS011;50680;52.626;-8.668;2023-09-08T10:23:07;13.88;;;5.90;;
64351;SDS011;50680;52.626;-8.668;2023-09-08T10:25:43;19.48;;;5.72;;
64351;SDS011;50680;52.626;-8.668;2023-09-08T10:28:19;18.85;;;5.47;;
64351;SDS011;50680;52.626;-8.668;2023-09-08T10:30:48;17.90;;;5.93;;
64351;SDS011;50680;52.626;-8.668;2023-09-08T10:33:16;19.02;;;4.50;;
64351;SDS011;50680;52.626;-8.668;2023-09-08T10:35:44;12.68;;;5.15;;
64351;SDS011;50680;52.626;-8.668;2023-09-08T10:38:21;16.15;;;4.15;;
64351;SDS011;50680;52.626;-8.668;2023-09-08T10:40:49;14.48;;;5.03;;
64351;SDS011;50680;52.626;-8.668;2023-09-08T10:43:17;10.30;;;4.93;;
64351;SDS011;50680;52.626;-8.668;2023-09-08T10:45:45;11.38;;;4.53;;
64351;SDS011;50680;52.626;-8.668;2023-09-08T10:48:15;11.93;;;3.67;;
64351;SDS011;50680;52.626;-8.668;2023-09-08T10:50:42;13.90;;;4.25;;
64351;SDS011;50680;52.626;-8.668;2023-09-08T10:53:17;10.60;;;4.47;;
64351;SDS011;50680;52.626;-8.668;2023-09-08T10:55:48;12.32;;;4.53;;
64351;SDS011;50680;52.626;-8.668;2023-09-08T10:58:39;8.55;;;3.33;;
64351;SDS011;50680;52.626;-8.668;2023-09-08T11:01:13;14.48;;;3.63;;
64351;SDS011;50680;52.626;-8.668;2023-09-08T11:03:44;7.88;;;3.03;;
64351;SDS011;50680;52.626;-8.668;2023-09-08T11:06:15;13.27;;;3.78;;
64351;SDS011;50680;52.626;-8.668;2023-09-08T11:08:45;10.52;;;2.97;;
64351;SDS011;50680;52.626;-8.668;2023-09-08T11:11:13;13.48;;;3.33;;
64351;SDS011;50680;52.626;-8.668;2023-09-08T11:13:41;9.23;;;3.35;;
64351;SDS011;50680;52.626;-8.668;2023-09-08T11:16:12;10.10;;;3.83;;
64351;SDS011;50680;52.626;-8.668;2023-09-08T11:18:41;14.55;;;3.10;;
64351;SDS011;50680;52.626;-8.668;2023-09-08T11:21:09;11.90;;;3.35;;
64351;SDS011;50680;52.626;-8.668;2023-09-08T11:23:36;7.97;;;2.67;;
64351;SDS011;50680;52.626;-8.668;2023-09-08T11:26:04;12.57;;;2.65;;
64351;SDS011;50680;52.626;-8.668;2023-09-08T11:28:32;15.18;;;2.67;;
64351;SDS011;50680;52.626;-8.668;2023-09-08T11:31:00;9.30;;;2.33;;
64351;SDS011;50680;52.626;-8.668;2023-09-08T11:33:32;10.48;;;3.47;;
64351;SDS011;50680;52.626;-8.668;2023-09-08T11:36:13;14.10;;;3.03;;
64351;SDS011;50680;52.626;-8.668;2023-09-08T11:38:46;10.05;;;3.00;;
64351;SDS011;50680;52.626;-8.668;2023-09-08T11:41:13;8.90;;;2.70;;
64351;SDS011;50680;52.626;-8.668;2023-09-08T11:43:40;14.40;;;2.60;;
64351;SDS011;50680;52.626;-8.668;2023-09-08T11:46:07;8.25;;;2.50;;
64351;SDS011;50680;52.626;-8.668;2023-09-08T11:48:34;7.55;;;1.80;;
64351;SDS011;50680;52.626;-8.668;2023-09-08T11:51:02;10.75;;;2.17;;
64351;SDS011;50680;52.626;-8.668;2023-09-08T11:53:29;9.18;;;1.80;;
64351;SDS011;50680;52.626;-8.668;2023-09-08T11:55:56;8.02;;;2.10;;
64351;SDS011;50680;52.626;-8.668;2023-09-08T11:58:23;6.60;;;1.77;;
64351;SDS011;50680;52.626;-8.668;2023-09-08T12:00:50;13.68;;;2.05;;
64351;SDS011;50680;52.626;-8.668;2023-09-08T12:03:18;10.10;;;2.72;;
64351;SDS011;50680;52.626;-8.668;2023-09-08T12:05:45;8.10;;;2.20;;
64351;SDS011;50680;52.626;-8.668;2023-09-08T12:08:18;6.18;;;2.03;;
64351;SDS011;50680;52.626;-8.668;2023-09-08T12:10:44;8.02;;;1.92;;
64351;SDS011;50680;52.626;-8.668;2023-09-08T12:13:11;10.50;;;2.20;;
64351;SDS011;50680;52.626;-8.668;2023-09-08T12:15:40;11.20;;;2.85;;
64351;SDS011;50680;52.626;-8.668;2023-09-08T12:18:12;7.53;;;2.15;;
64351;SDS011;50680;52.626;-8.668;2023-09-08T12:20:42;7.28;;;2.20;;
64351;SDS011;50680;52.626;-8.668;2023-09-08T12:23:21;8.88;;;2.03;;
64351;SDS011;50680;52.626;-8.668;2023-09-08T12:25:52;8.18;;;2.00;;
64351;SDS011;50680;52.626;-8.668;2023-09-08T12:28:19;9.27;;;2.50;;
64351;SDS011;50680;52.626;-8.668;2023-09-08T12:30:50;7.22;;;1.70;;
64351;SDS011;50680;52.626;-8.668;2023-09-08T12:33:19;11.50;;;2.20;;
64351;SDS011;50680;52.626;-8.668;2023-09-08T12:35:47;6.57;;;1.80;;
64351;SDS011;50680;52.626;-8.668;2023-09-08T12:38:15;7.60;;;1.67;;
64351;SDS011;50680;52.626;-8.668;2023-09-08T12:40:41;11.45;;;1.75;;
64351;SDS011;50680;52.626;-8.668;2023-09-08T12:43:08;8.77;;;1.98;;
64351;SDS011;50680;52.626;-8.668;2023-09-08T12:45:52;9.35;;;1.83;;
64351;SDS011;50680;52.626;-8.668;2023-09-08T12:48:19;11.13;;;1.85;;
64351;SDS011;50680;52.626;-8.668;2023-09-08T12:50:46;7.15;;;2.00;;
64351;SDS011;50680;52.626;-8.668;2023-09-08T12:53:15;7.22;;;1.80;;
64351;SDS011;50680;52.626;-8.668;2023-09-08T12:55:47;11.00;;;2.00;;
64351;SDS011;50680;52.626;-8.668;2023-09-08T12:58:14;6.75;;;1.27;;
64351;SDS011;50680;52.626;-8.668;2023-09-08T13:00:42;8.25;;;1.55;;
64351;SDS011;50680;52.626;-8.668;2023-09-08T13:03:10;6.13;;;1.80;;
64351;SDS011;50680;52.626;-8.668;2023-09-08T13:05:37;7.55;;;1.70;;
64351;SDS011;50680;52.626;-8.668;2023-09-08T13:08:05;6.72;;;1.60;;
64351;SDS011;50680;52.626;-8.668;2023-09-08T13:10:32;7.85;;;1.25;;
64351;SDS011;50680;52.626;-8.668;2023-09-08T13:12:59;6.47;;;1.40;;
64351;SDS011;50680;52.626;-8.668;2023-09-08T13:15:26;10.10;;;1.60;;
64351;SDS011;50680;52.626;-8.668;2023-09-08T13:17:53;9.82;;;2.13;;
64351;SDS011;50680;52.626;-8.668;2023-09-08T13:20:21;5.25;;;1.60;;
64351;SDS011;50680;52.626;-8.668;2023-09-08T13:22:48;5.72;;;1.52;;
64351;SDS011;50680;52.626;-8.668;2023-09-08T13:25:15;9.02;;;1.55;;
64351;SDS011;50680;52.626;-8.668;2023-09-08T13:27:41;7.65;;;2.15;;
64351;SDS011;50680;52.626;-8.668;2023-09-08T13:30:12;8.35;;;1.98;;
64351;SDS011;50680;52.626;-8.668;2023-09-08T13:32:41;9.50;;;2.00;;
64351;SDS011;50680;52.626;-8.668;2023-09-08T13:35:09;6.10;;;1.80;;
64351;SDS011;50680;52.626;-8.668;2023-09-08T13:37:36;4.05;;;1.75;;
64351;SDS011;50680;52.626;-8.668;2023-09-08T13:40:06;5.93;;;2.00;;
64351;SDS011;50680;52.626;-8.668;2023-09-08T13:42:35;5.32;;;2.10;;
64351;SDS011;50680;52.626;-8.668;2023-09-08T13:45:02;7.97;;;2.28;;
64351;SDS011;50680;52.626;-8.668;2023-09-08T13:47:30;12.20;;;2.85;;
64351;SDS011;50680;52.626;-8.668;2023-09-08T13:49:58;7.55;;;2.70;;
64351;SDS011;50680;52.626;-8.668;2023-09-08T13:52:28;5.00;;;2.72;;
64351;SDS011;50680;52.626;-8.668;2023-09-08T13:54:58;11.75;;;2.90;;
64351;SDS011;50680;52.626;-8.668;2023-09-08T13:57:28;9.55;;;3.20;;
64351;SDS011;50680;52.626;-8.668;2023-09-08T14:02:29;10.48;;;3.67;;
64351;SDS011;50680;52.626;-8.668;2023-09-08T14:04:59;10.25;;;3.53;;
64351;SDS011;50680;52.626;-8.668;2023-09-08T14:07:28;14.25;;;3.10;;
64351;SDS011;50680;52.626;-8.668;2023-09-08T14:09:58;9.23;;;2.85;;
64351;SDS011;50680;52.626;-8.668;2023-09-08T14:12:41;9.60;;;3.60;;
64351;SDS011;50680;52.626;-8.668;2023-09-08T14:15:08;9.82;;;3.13;;
64351;SDS011;50680;52.626;-8.668;2023-09-08T14:17:35;7.88;;;3.03;;
64351;SDS011;50680;52.626;-8.668;2023-09-08T14:20:02;9.75;;;3.22;;
64351;SDS011;50680;52.626;-8.668;2023-09-08T14:22:32;12.38;;;3.00;;
64351;SDS011;50680;52.626;-8.668;2023-09-08T14:24:58;9.77;;;3.10;;
64351;SDS011;50680;52.626;-8.668;2023-09-08T14:27:25;7.70;;;2.60;;